createdAt,value
2019-02-11T00:00:51.167Z,85.96
2019-02-11T00:03:19.755Z,86.96
2019-02-11T00:05:48.851Z,85.17
2019-02-11T00:08:17.415Z,84.52
2019-02-11T00:10:45.963Z,85.28
2019-02-11T00:13:14.524Z,85.26
2019-02-11T00:15:43.076Z,85.56
2019-02-11T00:18:11.647Z,85.55
2019-02-11T00:20:40.198Z,86.14
2019-02-11T00:23:08.813Z,86.24
2019-02-11T00:25:37.399Z,85.41
2019-02-11T00:28:05.936Z,85.90
2019-02-11T00:30:34.495Z,86.01
2019-02-11T00:33:03.045Z,85.60
2019-02-11T00:35:31.654Z,85.30
2019-02-11T00:38:00.194Z,84.60
2019-02-11T00:40:28.735Z,85.19
2019-02-11T00:42:57.299Z,85.23
2019-02-11T00:45:25.895Z,85.24
2019-02-11T00:47:54.455Z,84.54
2019-02-11T00:50:23.030Z,84.87
2019-02-11T00:52:51.610Z,84.18
2019-02-11T00:55:20.153Z,83.32
2019-02-11T00:57:48.710Z,83.78
2019-02-11T01:00:17.265Z,83.23
2019-02-11T01:02:45.827Z,81.54
2019-02-11T01:05:14.391Z,82.37
2019-02-11T01:07:42.939Z,82.67
2019-02-11T01:10:12.139Z,82.12
2019-02-11T01:12:40.974Z,81.54
2019-02-11T01:15:11.477Z,81.37
2019-02-11T01:17:40.319Z,82.20
2019-02-11T01:20:10.924Z,82.20
2019-02-11T01:22:39.508Z,81.55
2019-02-11T01:25:08.813Z,81.55
2019-02-11T01:27:37.370Z,81.54
2019-02-11T01:30:09.257Z,81.56
2019-02-11T01:32:38.089Z,80.57
2019-02-11T01:35:07.759Z,80.51
2019-02-11T01:37:36.631Z,80.49
2019-02-11T01:40:08.724Z,81.47
2019-02-11T01:42:37.569Z,82.12
2019-02-11T01:45:11.715Z,84.38
2019-02-11T01:47:40.564Z,85.90
2019-02-11T01:50:11.537Z,86.77
2019-02-11T01:52:40.401Z,87.37
2019-02-11T01:55:09.508Z,88.51
2019-02-11T01:57:38.393Z,88.51
2019-02-11T02:00:10.520Z,89.25
2019-02-11T02:02:39.367Z,89.25
2019-02-11T02:05:09.144Z,89.46
2019-02-11T02:07:38.239Z,90.25
2019-02-11T02:10:13.267Z,91.62
2019-02-11T02:12:42.087Z,90.77
2019-02-11T02:15:13.589Z,90.77
2019-02-11T02:17:42.419Z,91.28
2019-02-11T02:20:15.583Z,92.08
2019-02-11T02:22:44.449Z,92.12
2019-02-11T02:25:13.281Z,92.11
2019-02-11T02:27:42.132Z,92.11
2019-02-11T02:30:13.218Z,91.78
2019-02-11T02:32:42.068Z,91.78
2019-02-11T02:35:10.909Z,91.98
2019-02-11T02:37:39.731Z,93.17
2019-02-11T02:40:10.126Z,93.69
2019-02-11T02:42:38.959Z,93.74
2019-02-11T02:45:09.434Z,93.97
2019-02-11T02:47:38.305Z,93.69
2019-02-11T02:50:09.291Z,93.49
2019-02-11T02:52:38.153Z,93.81
2019-02-11T02:55:08.326Z,93.81
2019-02-11T02:57:37.149Z,93.59
2019-02-11T03:00:11.149Z,93.53
2019-02-11T03:02:40.034Z,93.92
2019-02-11T03:05:09.649Z,94.68
2019-02-11T03:07:38.497Z,95.17
2019-02-11T03:10:11.360Z,95.74
2019-02-11T03:12:40.185Z,95.72
2019-02-11T03:15:10.869Z,95.76
2019-02-11T03:17:39.767Z,95.73
2019-02-11T03:20:09.751Z,96.56
2019-02-11T03:22:38.591Z,96.54
2019-02-11T03:25:08.581Z,96.29
2019-02-11T03:27:37.526Z,95.86
2019-02-11T03:30:09.294Z,95.36
2019-02-11T03:32:38.139Z,95.05
2019-02-11T03:35:07.596Z,95.72
2019-02-11T03:37:36.473Z,96.11
2019-02-11T03:40:07.883Z,95.93
2019-02-11T03:42:36.734Z,96.07
2019-02-11T03:45:08.906Z,96.47
2019-02-11T03:47:37.745Z,96.32
2019-02-11T03:50:09.562Z,96.26
2019-02-11T03:52:38.479Z,96.14
2019-02-11T03:55:08.266Z,96.36
2019-02-11T03:57:37.143Z,96.30
2019-02-11T04:00:09.555Z,95.97
2019-02-11T04:02:38.405Z,95.93
2019-02-11T04:05:07.813Z,96.13
2019-02-11T04:07:36.694Z,96.12
2019-02-11T04:10:10.381Z,95.99
2019-02-11T04:12:39.267Z,95.89
2019-02-11T04:15:09.167Z,95.84
2019-02-11T04:17:38.015Z,95.57
2019-02-11T04:20:08.340Z,95.59
2019-02-11T04:22:37.182Z,95.73
2019-02-11T04:25:07.269Z,95.18
2019-02-11T04:27:36.146Z,94.99
2019-02-11T04:30:07.370Z,94.94
2019-02-11T04:32:36.257Z,94.97
2019-02-11T04:35:06.297Z,94.12
2019-02-11T04:37:35.181Z,94.19
2019-02-11T04:40:06.047Z,93.69
2019-02-11T04:42:34.899Z,93.46
2019-02-11T04:45:04.246Z,93.47
2019-02-11T04:47:33.130Z,93.44
2019-02-11T04:50:02.051Z,93.24
2019-02-11T04:52:30.904Z,93.33
2019-02-11T04:54:59.759Z,93.42
2019-02-11T04:57:28.643Z,92.91
2019-02-11T04:59:57.480Z,92.75
2019-02-11T05:02:26.351Z,93.21
2019-02-11T05:04:55.226Z,92.38
2019-02-11T05:07:24.122Z,92.27
2019-02-11T05:09:52.975Z,91.87
2019-02-11T05:12:21.829Z,91.76
2019-02-11T05:14:50.690Z,91.52
2019-02-11T05:17:19.533Z,91.43
2019-02-11T05:19:48.393Z,91.10
2019-02-11T05:22:17.271Z,91.30
2019-02-11T05:24:46.111Z,90.96
2019-02-11T05:27:14.971Z,90.79
2019-02-11T05:29:43.821Z,90.91
2019-02-11T05:32:12.669Z,90.69
2019-02-11T05:34:41.504Z,90.70
2019-02-11T05:37:10.391Z,90.42
2019-02-11T05:39:39.236Z,90.69
2019-02-11T05:42:08.095Z,90.58
2019-02-11T05:44:36.951Z,90.72
2019-02-11T05:47:05.833Z,90.65
2019-02-11T05:49:34.699Z,90.17
2019-02-11T05:52:03.566Z,90.20
2019-02-11T05:54:32.417Z,90.49
2019-02-11T05:57:01.288Z,90.51
2019-02-11T05:59:30.137Z,90.43
2019-02-11T06:01:59.008Z,90.27
2019-02-11T06:04:27.856Z,90.12
2019-02-11T06:06:56.742Z,90.59
2019-02-11T06:09:25.598Z,90.51
2019-02-11T06:11:54.454Z,90.49
2019-02-11T06:14:24.831Z,90.55
2019-02-11T06:16:53.671Z,90.46
2019-02-11T06:19:22.534Z,90.31
2019-02-11T06:21:51.398Z,90.54
2019-02-11T06:24:20.284Z,90.18
2019-02-11T06:26:49.122Z,90.18
2019-02-11T06:29:19.063Z,90.04
2019-02-11T06:31:48.058Z,90.29
2019-02-11T06:34:16.911Z,90.37
2019-02-11T06:36:45.816Z,89.74
2019-02-11T06:39:14.684Z,89.97
2019-02-11T06:41:43.513Z,89.87
2019-02-11T06:44:29.098Z,89.91
2019-02-11T06:46:57.966Z,89.80
2019-02-11T06:49:26.823Z,89.91
2019-02-11T06:51:55.704Z,89.94
2019-02-11T06:54:24.563Z,89.76
2019-02-11T06:56:53.404Z,89.79
2019-02-11T06:59:22.286Z,89.28
2019-02-11T07:01:51.140Z,89.32
2019-02-11T07:04:20.019Z,89.15
2019-02-11T07:06:48.893Z,89.27
2019-02-11T07:09:17.754Z,89.15
2019-02-11T07:11:46.624Z,89.21
2019-02-11T07:14:15.496Z,89.25
2019-02-11T07:16:44.328Z,89.56
2019-02-11T07:19:13.194Z,90.20
2019-02-11T07:21:42.100Z,90.33
2019-02-11T07:24:10.984Z,90.66
2019-02-11T07:26:39.908Z,90.86
2019-02-11T07:29:08.786Z,90.53
2019-02-11T07:31:37.653Z,90.49
2019-02-11T07:34:06.515Z,89.85
2019-02-11T07:36:35.383Z,89.27
2019-02-11T07:39:07.282Z,88.84
2019-02-11T07:41:40.572Z,88.48
2019-02-11T07:44:11.064Z,87.42
2019-02-11T07:46:41.123Z,87.64
2019-02-11T07:49:10.003Z,88.08
2019-02-11T07:51:42.364Z,88.52
2019-02-11T07:54:09.523Z,89.43
2019-02-11T07:56:38.408Z,91.27
2019-02-11T07:59:07.307Z,92.33
2019-02-11T08:01:36.165Z,93.29
2019-02-11T08:04:05.046Z,93.71
2019-02-11T08:06:33.942Z,93.29
2019-02-11T08:09:04.419Z,92.77
2019-02-11T08:11:33.273Z,92.60
2019-02-11T08:14:02.159Z,92.62
2019-02-11T08:16:31.058Z,91.92
2019-02-11T08:18:59.899Z,91.38
2019-02-11T08:21:28.794Z,90.30
2019-02-11T08:23:57.655Z,90.68
2019-02-11T08:26:26.510Z,90.12
2019-02-11T08:28:55.375Z,90.28
2019-02-11T08:31:24.236Z,89.94
2019-02-11T08:33:53.106Z,90.09
2019-02-11T08:36:21.992Z,89.44
2019-02-11T08:38:50.856Z,89.41
2019-02-11T08:41:19.716Z,88.79
2019-02-11T08:43:48.596Z,88.61
2019-02-11T08:46:17.457Z,88.26
2019-02-11T08:48:46.332Z,87.67
2019-02-11T08:51:15.190Z,87.80
2019-02-11T08:53:44.046Z,87.63
2019-02-11T08:56:12.926Z,87.17
2019-02-11T08:58:41.776Z,87.23
2019-02-11T09:01:10.671Z,87.23
2019-02-11T09:03:39.537Z,87.15
2019-02-11T09:06:08.394Z,86.68
2019-02-11T09:08:37.278Z,86.57
2019-02-11T09:11:06.127Z,86.99
2019-02-11T09:13:34.989Z,86.37
2019-02-11T09:16:03.906Z,85.77
2019-02-11T09:18:32.829Z,86.31
2019-02-11T09:21:01.688Z,82.63
2019-02-11T09:23:30.554Z,82.57
2019-02-11T09:25:59.391Z,80.12
2019-02-11T09:28:28.312Z,80.12
2019-02-11T09:30:57.156Z,79.33
2019-02-11T09:33:26.016Z,77.70
2019-02-11T09:35:54.930Z,75.90
2019-02-11T09:38:23.842Z,74.60
2019-02-11T09:40:52.405Z,74.60
2019-02-11T09:43:20.977Z,72.98
2019-02-11T09:45:49.861Z,73.30
2019-02-11T09:48:18.751Z,72.18
2019-02-11T09:50:48.829Z,73.21
2019-02-11T09:53:17.719Z,73.21
2019-02-11T09:55:46.286Z,72.99
2019-02-11T09:58:14.852Z,73.96
2019-02-11T10:00:43.443Z,72.27
2019-02-11T10:03:12.013Z,71.86
2019-02-11T10:05:40.571Z,71.95
2019-02-11T10:08:09.168Z,72.56
2019-02-11T10:10:37.735Z,73.62
2019-02-11T10:13:06.338Z,73.60
2019-02-11T10:15:35.182Z,73.49
2019-02-11T10:18:03.753Z,73.27
2019-02-11T10:20:32.350Z,72.33
2019-02-11T10:23:01.212Z,70.14
2019-02-11T10:25:31.028Z,70.97
2019-02-11T10:28:05.526Z,69.75
2019-02-11T10:30:34.258Z,70.42
2019-02-11T10:33:02.822Z,69.29
2019-02-11T10:35:31.392Z,69.49
2019-02-11T10:38:00.025Z,69.80
2019-02-11T10:40:28.593Z,69.68
2019-02-11T10:42:57.172Z,69.75
2019-02-11T10:45:26.009Z,70.08
2019-02-11T10:47:54.612Z,69.71
2019-02-11T10:50:23.164Z,68.75
2019-02-11T10:52:51.729Z,69.49
2019-02-11T10:55:21.774Z,68.36
2019-02-11T10:57:50.323Z,66.56
2019-02-11T11:00:23.664Z,66.29
2019-02-11T11:02:52.227Z,65.33
2019-02-11T11:05:20.790Z,65.35
2019-02-11T11:07:49.710Z,65.29
2019-02-11T11:10:21.645Z,65.51
2019-02-11T11:12:50.208Z,65.92
2019-02-11T11:15:19.424Z,66.24
2019-02-11T11:17:47.996Z,66.42
2019-02-11T11:20:18.096Z,66.58
2019-02-11T11:22:46.824Z,67.07
2019-02-11T11:25:17.631Z,65.73
2019-02-11T11:27:46.224Z,65.00
2019-02-11T11:30:19.089Z,65.24
2019-02-11T11:32:47.878Z,65.12
2019-02-11T11:35:17.771Z,65.16
2019-02-11T11:37:46.335Z,65.33
2019-02-11T11:40:24.600Z,64.64
2019-02-11T11:42:53.162Z,64.64
2019-02-11T11:45:21.987Z,64.53
2019-02-11T11:47:50.592Z,63.79
2019-02-11T11:50:19.336Z,63.75
2019-02-11T11:52:47.961Z,64.73
2019-02-11T11:55:18.616Z,64.34
2019-02-11T11:57:47.388Z,63.98
2019-02-11T12:00:22.090Z,64.79
2019-02-11T12:03:01.515Z,64.54
2019-02-11T12:05:21.626Z,64.72
2019-02-11T12:07:50.197Z,65.15
2019-02-11T12:10:18.746Z,64.88
2019-02-11T12:12:47.340Z,64.45
2019-02-11T12:15:21.265Z,64.09
2019-02-11T12:17:50.118Z,65.01
2019-02-11T12:20:18.693Z,65.01
2019-02-11T12:22:47.322Z,65.45
2019-02-11T12:25:17.648Z,66.22
2019-02-11T12:27:46.263Z,66.52
2019-02-11T12:30:20.649Z,66.63
2019-02-11T12:32:49.230Z,66.00
2019-02-11T12:35:17.963Z,66.59
2019-02-11T12:37:46.514Z,66.81
2019-02-11T12:40:15.120Z,66.98
2019-02-11T12:42:43.884Z,67.25
2019-02-11T12:45:18.402Z,68.34
2019-02-11T12:47:46.982Z,69.10
2019-02-11T12:50:17.361Z,69.74
2019-02-11T12:52:46.032Z,70.87
2019-02-11T12:55:18.726Z,69.31
2019-02-11T12:57:47.288Z,68.23
2019-02-11T13:00:20.594Z,66.60
2019-02-11T13:02:49.460Z,65.96
2019-02-11T13:05:22.152Z,65.40
2019-02-11T13:07:48.745Z,64.52
2019-02-11T13:10:20.259Z,64.01
2019-02-11T13:12:49.192Z,63.53
2019-02-11T13:15:52.609Z,63.73
2019-02-11T13:17:49.689Z,63.85
2019-02-11T13:20:19.238Z,63.31
2019-02-11T13:22:48.118Z,63.42
2019-02-11T13:25:18.022Z,62.56
2019-02-11T13:27:46.707Z,63.44
2019-02-11T13:30:20.340Z,63.55
2019-02-11T13:32:48.980Z,63.55
2019-02-11T13:35:17.615Z,63.46
2019-02-11T13:37:46.369Z,63.49
2019-02-11T13:40:15.089Z,62.39
2019-02-11T13:42:43.722Z,63.22
2019-02-11T13:45:15.182Z,63.61
2019-02-11T13:47:53.749Z,64.23
2019-02-11T13:50:23.012Z,64.30
2019-02-11T13:52:51.924Z,65.47
2019-02-11T13:55:21.151Z,65.78
2019-02-11T13:57:50.148Z,66.57
2019-02-11T14:00:25.291Z,66.71
2019-02-11T14:02:58.966Z,66.99
2019-02-11T14:05:28.749Z,66.29
2019-02-11T14:07:59.761Z,65.98
2019-02-11T14:10:28.748Z,65.30
2019-02-11T14:12:57.667Z,64.50
2019-02-11T14:15:26.506Z,63.38
2019-02-11T14:18:10.446Z,62.55
2019-02-11T14:20:27.214Z,63.06
2019-02-11T14:22:55.781Z,61.51
2019-02-11T14:25:40.614Z,60.30
2019-02-11T14:27:54.658Z,60.82
2019-02-11T14:30:23.509Z,60.36
2019-02-11T14:32:52.322Z,58.90
2019-02-11T14:35:21.247Z,57.12
2019-02-11T14:37:50.103Z,57.63
2019-02-11T14:40:19.053Z,56.43
2019-02-11T14:42:47.666Z,56.08
2019-02-11T14:45:20.280Z,54.69
2019-02-11T14:47:48.888Z,54.54
2019-02-11T14:50:17.463Z,53.53
2019-02-11T14:52:46.083Z,54.44
2019-02-11T14:55:14.685Z,54.22
2019-02-11T14:57:43.275Z,53.94
2019-02-11T15:00:16.194Z,53.49
2019-02-11T15:02:44.779Z,53.51
2019-02-11T15:05:14.617Z,52.72
2019-02-11T15:07:44.407Z,52.90
2019-02-11T15:10:13.663Z,53.07
2019-02-11T15:12:42.231Z,52.88
2019-02-11T15:15:12.030Z,53.13
2019-02-11T15:17:42.262Z,53.49
2019-02-11T15:20:15.619Z,54.01
2019-02-11T15:22:44.234Z,54.22
2019-02-11T15:25:17.281Z,54.95
2019-02-11T15:27:45.827Z,54.99
2019-02-11T15:30:16.433Z,55.51
2019-02-11T15:32:45.025Z,55.53
2019-02-11T15:35:13.762Z,54.83
2019-02-11T15:37:42.315Z,55.11
2019-02-11T15:40:13.940Z,54.87
2019-02-11T15:42:42.501Z,54.89
2019-02-11T15:45:13.468Z,55.08
2019-02-11T15:47:42.327Z,55.27
2019-02-11T15:50:13.973Z,55.95
2019-02-11T15:52:42.518Z,55.90
2019-02-11T15:55:15.469Z,56.35
2019-02-11T15:57:44.339Z,56.71
2019-02-11T16:00:15.269Z,56.82
2019-02-11T16:02:44.138Z,57.17
2019-02-11T16:05:16.516Z,56.87
2019-02-11T16:07:43.085Z,56.37
2019-02-11T16:10:26.613Z,56.45
2019-02-11T16:12:55.231Z,56.60
2019-02-11T16:15:24.068Z,56.03
2019-02-11T16:17:52.930Z,56.10
2019-02-11T16:20:21.831Z,56.10
2019-02-11T16:22:50.655Z,56.20
2019-02-11T16:25:19.509Z,55.82
2019-02-11T16:27:48.386Z,56.08
2019-02-11T16:30:18.946Z,56.08
2019-02-11T16:32:47.857Z,55.57
2019-02-11T16:35:17.945Z,55.57
2019-02-11T16:37:47.184Z,55.72
2019-02-11T16:40:24.331Z,56.22
2019-02-11T16:42:53.183Z,56.29
2019-02-11T16:45:22.103Z,56.67
2019-02-11T16:47:51.069Z,57.32
2019-02-11T16:50:19.920Z,57.39
2019-02-11T16:52:48.791Z,57.39
2019-02-11T16:55:17.643Z,57.55
2019-02-11T16:57:46.528Z,57.55
2019-02-11T17:00:19.585Z,57.39
2019-02-11T17:02:48.524Z,57.80
2019-02-11T17:05:17.468Z,57.35
2019-02-11T17:07:46.324Z,57.58
2019-02-11T17:10:16.028Z,57.25
2019-02-11T17:12:44.901Z,57.25
2019-02-11T17:15:20.692Z,57.64
2019-02-11T17:17:49.564Z,57.58
2019-02-11T17:20:18.442Z,57.09
2019-02-11T17:22:47.304Z,57.09
2019-02-11T17:25:16.334Z,56.61
2019-02-11T17:27:45.206Z,56.54
2019-02-11T17:30:32.204Z,56.54
2019-02-11T17:33:01.118Z,56.58
2019-02-11T17:35:29.968Z,56.34
2019-02-11T17:37:58.842Z,56.34
2019-02-11T17:40:27.742Z,56.70
2019-02-11T17:42:56.601Z,56.65
2019-02-11T17:45:27.201Z,56.93
2019-02-11T17:47:56.216Z,56.93
2019-02-11T17:50:25.079Z,56.52
2019-02-11T17:52:56.738Z,56.44
2019-02-11T17:55:25.621Z,56.43
2019-02-11T17:57:54.480Z,56.60
2019-02-11T18:00:31.122Z,56.67
2019-02-11T18:03:00.037Z,56.65
2019-02-11T18:05:28.859Z,56.78
2019-02-11T18:07:57.723Z,56.69
2019-02-11T18:10:26.679Z,56.72
2019-02-11T18:12:55.569Z,56.85
2019-02-11T18:15:24.480Z,57.17
2019-02-11T18:17:53.350Z,57.17
2019-02-11T18:20:22.212Z,57.42
2019-02-11T18:22:51.097Z,57.37
2019-02-11T18:25:19.976Z,57.46
2019-02-11T18:27:48.848Z,57.26
2019-02-11T18:30:17.864Z,57.71
2019-02-11T18:32:46.963Z,57.95
2019-02-11T18:35:20.714Z,57.66
2019-02-11T18:37:49.590Z,57.63
2019-02-11T18:40:18.468Z,57.70
2019-02-11T18:42:47.335Z,57.62
2019-02-11T18:45:17.436Z,57.96
2019-02-11T18:47:46.430Z,58.08
2019-02-11T18:50:16.023Z,58.42
2019-02-11T18:52:44.875Z,58.36
2019-02-11T18:55:16.121Z,58.34
2019-02-11T18:57:46.161Z,58.30
2019-02-11T19:00:19.602Z,58.48
2019-02-11T19:02:49.144Z,58.60
2019-02-11T19:05:18.377Z,59.32
2019-02-11T19:07:47.274Z,59.17
2019-02-11T19:10:18.437Z,59.20
2019-02-11T19:12:47.377Z,59.26
2019-02-11T19:15:17.604Z,59.48
2019-02-11T19:17:46.528Z,59.33
2019-02-11T19:20:16.644Z,59.46
2019-02-11T19:22:45.526Z,60.03
2019-02-11T19:25:15.708Z,60.03
2019-02-11T19:27:45.071Z,60.38
2019-02-11T19:30:22.262Z,60.59
2019-02-11T19:32:51.170Z,60.93
2019-02-11T19:35:20.074Z,61.35
2019-02-11T19:37:48.934Z,61.54
2019-02-11T19:40:19.939Z,61.90
2019-02-11T19:42:48.864Z,61.86
2019-02-11T19:45:21.916Z,62.24
2019-02-11T19:47:50.757Z,62.40
2019-02-11T19:50:19.759Z,62.37
2019-02-11T19:52:48.811Z,62.51
2019-02-11T19:55:17.825Z,62.84
2019-02-11T19:57:46.946Z,63.77
2019-02-11T20:00:20.348Z,64.06
2019-02-11T20:02:50.182Z,64.40
2019-02-11T20:05:19.192Z,64.94
2019-02-11T20:07:48.207Z,65.33
2019-02-11T20:10:24.583Z,66.51
2019-02-11T20:12:53.442Z,67.65
2019-02-11T20:15:25.213Z,68.42
2019-02-11T20:17:54.154Z,68.82
2019-02-11T20:20:23.516Z,69.06
2019-02-11T20:22:52.398Z,69.78
2019-02-11T20:25:21.265Z,70.66
2019-02-11T20:27:51.080Z,71.64
2019-02-11T20:30:22.581Z,72.81
2019-02-11T20:32:51.494Z,73.09
2019-02-11T20:35:22.678Z,74.06
2019-02-11T20:37:51.516Z,74.36
2019-02-11T20:40:26.053Z,74.92
2019-02-11T20:42:54.954Z,75.48
2019-02-11T20:45:28.677Z,76.00
2019-02-11T20:47:57.813Z,76.07
2019-02-11T20:50:26.664Z,76.00
2019-02-11T20:52:55.569Z,76.09
2019-02-11T20:55:24.450Z,76.06
2019-02-11T20:57:56.062Z,76.03
2019-02-11T21:00:26.133Z,76.16
2019-02-11T21:02:54.996Z,76.02
2019-02-11T21:05:24.399Z,76.50
2019-02-11T21:07:53.282Z,76.08
2019-02-11T21:10:23.795Z,76.10
2019-02-11T21:12:54.201Z,76.11
2019-02-11T21:15:23.805Z,76.25
2019-02-11T21:17:52.671Z,75.88
2019-02-11T21:20:30.394Z,76.27
2019-02-11T21:22:59.316Z,75.88
2019-02-11T21:25:28.170Z,76.29
2019-02-11T21:27:57.021Z,75.68
2019-02-11T21:30:25.908Z,75.74
2019-02-11T21:32:54.786Z,75.57
2019-02-11T21:35:23.678Z,75.83
2019-02-11T21:37:52.583Z,75.66
2019-02-11T21:40:21.454Z,75.45
2019-02-11T21:42:50.335Z,75.41
2019-02-11T21:45:19.230Z,75.45
2019-02-11T21:47:48.110Z,75.36
2019-02-11T21:50:26.318Z,75.34
2019-02-11T21:52:49.838Z,75.42
2019-02-11T21:55:20.756Z,75.62
2019-02-11T21:57:49.894Z,75.36
2019-02-11T22:00:25.065Z,75.18
2019-02-11T22:02:53.976Z,74.98
2019-02-11T22:05:22.850Z,75.06
2019-02-11T22:07:51.777Z,75.35
2019-02-11T22:10:22.550Z,75.37
2019-02-11T22:12:51.452Z,75.01
2019-02-11T22:15:20.401Z,74.76
2019-02-11T22:17:49.248Z,74.80
2019-02-11T22:20:22.796Z,76.00
2019-02-11T22:22:51.670Z,75.76
2019-02-11T22:25:20.947Z,75.63
2019-02-11T22:27:49.847Z,74.90
2019-02-11T22:30:21.776Z,74.90
2019-02-11T22:32:50.639Z,75.35
2019-02-11T22:35:19.518Z,75.18
2019-02-11T22:37:50.347Z,74.69
2019-02-11T22:40:19.294Z,74.69
2019-02-11T22:42:48.148Z,74.71
2019-02-11T22:45:22.858Z,74.47
2019-02-11T22:47:51.722Z,74.63
2019-02-11T22:50:20.582Z,74.29
2019-02-11T22:52:49.446Z,73.76
2019-02-11T22:55:18.313Z,73.71
2019-02-11T22:57:47.271Z,73.58
2019-02-11T23:00:27.008Z,73.14
2019-02-11T23:02:55.896Z,74.13
2019-02-11T23:05:24.742Z,73.27
2019-02-11T23:07:53.600Z,72.80
2019-02-11T23:10:22.479Z,72.72
2019-02-11T23:12:51.350Z,73.25
2019-02-11T23:15:20.321Z,72.67
2019-02-11T23:17:49.171Z,72.50
2019-02-11T23:20:18.042Z,72.57
2019-02-11T23:22:46.913Z,72.55
2019-02-11T23:25:15.777Z,72.87
2019-02-11T23:27:44.670Z,72.67
2019-02-11T23:30:13.952Z,72.64
2019-02-11T23:32:42.840Z,72.00
2019-02-11T23:35:11.713Z,72.26
2019-02-11T23:37:40.592Z,72.33
2019-02-11T23:40:10.402Z,72.67
2019-02-11T23:42:39.250Z,72.74
2019-02-11T23:45:09.918Z,72.01
2019-02-11T23:47:38.805Z,72.16
2019-02-11T23:50:11.505Z,72.29
2019-02-11T23:52:40.353Z,71.98
2019-02-11T23:55:10.163Z,72.11
2019-02-11T23:57:39.010Z,72.36
